Time;durP1;ratioP1;P1;durP2;ratioP2;P2;SDS_P1;SDS_P2;PMS_P1;PMS_P2;Temp;Humidity;BMP_temperature;BMP_pressure;BME280_temperature;BME280_humidity;BME280_pressure;Samples;Min_cycle;Max_cycle;Signal;HPM_P1;HPM_P2
2022/09/09 00:01:30;;;;;;;1.73;0.30;;;;;;;19.45;100.00;100421.47;4990210;28;20042;-64
2022/09/09 00:04:11;;;;;;;2.13;0.47;;;;;;;19.44;100.00;100417.19;4970704;28;20482;-64
2022/09/09 00:07:04;;;;;;;5.15;0.60;;;;;;;19.37;100.00;100421.69;4990281;28;20046;-64
2022/09/09 00:09:39;;;;;;;4.97;0.80;;;;;;;19.37;100.00;100420.88;4993599;28;20116;-63
2022/09/09 00:12:11;;;;;;;5.13;0.50;;;;;;;19.34;100.00;100422.09;4999068;28;20080;-63
2022/09/09 00:14:42;;;;;;;2.85;0.30;;;;;;;19.31;100.00;100413.75;4990138;28;20102;-64
2022/09/09 00:17:28;;;;;;;5.20;0.40;;;;;;;19.27;100.00;100415.19;5005572;28;20034;-65
2022/09/09 00:20:18;;;;;;;2.25;0.63;;;;;;;19.23;100.00;100415.59;5009872;28;20048;-63
2022/09/09 00:22:59;;;;;;;1.48;0.40;;;;;;;19.26;100.00;100414.38;5009457;28;20037;-65
2022/09/09 00:25:37;;;;;;;4.63;0.50;;;;;;;19.28;100.00;100417.63;4991785;28;20029;-63
2022/09/09 00:28:14;;;;;;;4.85;0.40;;;;;;;19.25;100.00;100418.03;4993077;28;20038;-62
2022/09/09 00:30:41;;;;;;;4.18;0.50;;;;;;;19.22;100.00;100421.88;4972226;28;20038;-63
2022/09/09 00:33:14;;;;;;;1.45;0.30;;;;;;;19.18;100.00;100419.84;4989740;28;20142;-63
2022/09/09 00:35:47;;;;;;;2.10;0.40;;;;;;;19.16;100.00;100425.31;4972220;28;20038;-63
2022/09/09 00:38:24;;;;;;;2.28;0.40;;;;;;;19.14;100.00;100414.16;4989526;28;20030;-64
2022/09/09 00:40:55;;;;;;;1.60;0.30;;;;;;;19.12;100.00;100413.53;4989051;28;20042;-63
2022/09/09 00:43:35;;;;;;;3.13;0.30;;;;;;;19.11;100.00;100413.72;4989751;28;20034;-63
2022/09/09 00:46:54;;;;;;;1.02;0.30;;;;;;;19.08;100.00;100411.50;4989586;28;20080;-64
2022/09/09 00:49:26;;;;;;;2.65;0.35;;;;;;;19.00;100.00;100415.13;4964749;28;20131;-63
2022/09/09 00:52:07;;;;;;;1.63;0.50;;;;;;;18.96;100.00;100400.69;4967113;28;20058;-63
2022/09/09 00:54:51;;;;;;;1.65;0.30;;;;;;;18.93;100.00;100409.03;4967213;28;20618;-64
2022/09/09 00:57:28;;;;;;;6.90;0.43;;;;;;;18.93;100.00;100408.22;4951295;28;20043;-63
2022/09/09 01:00:22;;;;;;;3.85;0.30;;;;;;;18.94;100.00;100407.19;4947910;29;20035;-65
2022/09/09 01:03:13;;;;;;;6.88;0.60;;;;;;;18.96;100.00;100405.16;4947762;29;20114;-63
2022/09/09 01:05:47;;;;;;;6.47;0.40;;;;;;;19.02;100.00;100399.91;4947686;29;20431;-64
2022/09/09 01:08:39;;;;;;;4.72;0.28;;;;;;;19.07;100.00;100413.31;4960352;28;20431;-64
2022/09/09 01:11:16;;;;;;;3.38;0.40;;;;;;;19.09;100.00;100413.13;4939303;28;20688;-65
2022/09/09 01:13:45;;;;;;;1.98;0.30;;;;;;;19.11;100.00;100408.44;4966982;28;20042;-64
2022/09/09 01:16:11;;;;;;;4.47;0.43;;;;;;;19.15;100.00;100409.69;4950690;28;20478;-65
2022/09/09 01:18:45;;;;;;;4.22;0.30;;;;;;;19.12;100.00;100402.97;4963327;28;20039;-64
2022/09/09 01:21:20;;;;;;;2.85;0.40;;;;;;;19.16;100.00;100400.75;4965994;28;20162;-64
2022/09/09 01:24:10;;;;;;;2.22;0.28;;;;;;;19.20;100.00;100404.59;4974703;28;20446;-64
2022/09/09 01:26:35;;;;;;;1.95;0.30;;;;;;;19.25;100.00;100409.28;4995561;28;20033;-63
2022/09/09 01:29:01;;;;;;;1.10;0.30;;;;;;;19.25;100.00;100404.81;5008673;28;20072;-64
2022/09/09 01:31:40;;;;;;;2.65;0.30;;;;;;;19.25;100.00;100406.66;5008896;28;20095;-64
2022/09/09 01:34:14;;;;;;;3.78;0.30;;;;;;;19.28;100.00;100408.88;4990881;28;20037;-63
2022/09/09 01:36:55;;;;;;;2.20;0.35;;;;;;;19.25;100.00;100402.19;5003014;28;20034;-64
2022/09/09 01:39:21;;;;;;;2.28;0.40;;;;;;;19.28;100.00;100390.41;4992997;28;20489;-65
2022/09/09 01:41:46;;;;;;;3.13;0.43;;;;;;;19.31;100.00;100393.44;5007636;28;20037;-64
2022/09/09 01:44:12;;;;;;;3.38;0.60;;;;;;;19.31;100.00;100390.81;4990650;28;20026;-64
2022/09/09 01:46:38;;;;;;;3.10;0.65;;;;;;;19.29;100.00;100395.47;5007236;28;20022;-64
2022/09/09 01:49:06;;;;;;;1.02;0.30;;;;;;;19.29;100.00;100387.56;4989865;28;20053;-64
2022/09/09 01:51:32;;;;;;;2.75;0.20;;;;;;;19.31;100.00;100388.16;4996322;28;20054;-64
2022/09/09 01:53:58;;;;;;;1.80;0.40;;;;;;;19.29;100.00;100379.63;4969541;28;20035;-64
2022/09/09 01:56:57;;;;;;;2.25;0.20;;;;;;;19.21;100.00;100385.09;4970536;28;20117;-66
2022/09/09 01:59:32;;;;;;;1.95;0.20;;;;;;;19.24;100.00;100376.78;4976133;28;20429;-64
2022/09/09 02:01:57;;;;;;;1.30;0.30;;;;;;;19.27;100.00;100386.13;4969233;28;20042;-64
2022/09/09 02:04:40;;;;;;;3.80;0.40;;;;;;;19.23;100.00;100378.59;4950947;28;20102;-64
2022/09/09 02:07:28;;;;;;;2.00;0.35;;;;;;;19.14;100.00;100379.81;4988895;28;20066;-63
2022/09/09 02:10:19;;;;;;;3.22;0.55;;;;;;;19.12;100.00;100387.13;4988584;28;20038;-64
2022/09/09 02:12:50;;;;;;;1.42;0.52;;;;;;;19.14;100.00;100385.09;4986176;28;20041;-64
2022/09/09 02:15:57;;;;;;;0.82;0.30;;;;;;;19.14;100.00;100379.00;4988668;28;20085;-65
2022/09/09 02:18:32;;;;;;;0.90;0.30;;;;;;;19.14;100.00;100376.38;4889930;29;20115;-65
2022/09/09 02:20:59;;;;;;;4.82;1.23;;;;;;;19.15;100.00;100381.44;4881197;29;20032;-64
2022/09/09 02:23:25;;;;;;;1.15;0.40;;;;;;;19.10;100.00;100381.22;4890040;29;20099;-63
2022/09/09 02:25:53;;;;;;;1.45;0.40;;;;;;;19.03;100.00;100377.78;4890052;29;20036;-64
2022/09/09 02:28:25;;;;;;;4.13;0.50;;;;;;;19.00;100.00;100378.16;4876204;29;20361;-64
2022/09/09 02:30:54;;;;;;;1.25;0.30;;;;;;;18.90;100.00;100383.84;4886792;29;20140;-63
2022/09/09 02:33:25;;;;;;;1.92;0.45;;;;;;;18.90;100.00;100388.34;4871518;29;20116;-65
2022/09/09 02:35:52;;;;;;;1.83;0.55;;;;;;;18.92;100.00;100386.28;4872309;29;20061;-64
2022/09/09 02:38:21;;;;;;;3.13;0.47;;;;;;;18.80;100.00;100386.06;4882938;29;20096;-64
2022/09/09 02:40:48;;;;;;;1.42;0.40;;;;;;;18.70;100.00;100396.19;4893573;29;20139;-65
2022/09/09 02:43:16;;;;;;;5.22;0.60;;;;;;;18.64;100.00;100389.06;4892665;29;20045;-63
2022/09/09 02:45:51;;;;;;;2.38;0.57;;;;;;;18.57;100.00;100383.75;4862484;29;20141;-63
2022/09/09 02:48:30;;;;;;;2.35;0.73;;;;;;;18.50;100.00;100380.25;4889011;29;20040;-65
2022/09/09 02:50:55;;;;;;;2.85;0.50;;;;;;;18.50;100.00;100377.63;4874837;29;20498;-64
2022/09/09 02:53:29;;;;;;;1.25;0.68;;;;;;;18.62;100.00;100372.63;4893350;29;20036;-65
2022/09/09 02:56:05;;;;;;;3.88;0.60;;;;;;;18.74;100.00;100365.75;4975188;28;20046;-65
2022/09/09 02:58:31;;;;;;;3.67;0.70;;;;;;;18.80;100.00;100370.25;5002015;28;20034;-64
2022/09/09 03:00:57;;;;;;;4.93;1.13;;;;;;;18.85;100.00;100367.81;5011712;28;20421;-64
2022/09/09 03:03:23;;;;;;;2.28;0.52;;;;;;;18.86;100.00;100360.72;5011003;28;20028;-64
2022/09/09 03:05:49;;;;;;;4.95;0.55;;;;;;;18.84;100.00;100362.75;5011146;28;20029;-64
2022/09/09 03:08:14;;;;;;;2.25;0.65;;;;;;;18.83;100.00;100356.66;5006504;28;20053;-64
2022/09/09 03:10:40;;;;;;;2.10;0.60;;;;;;;18.84;100.00;100353.00;4991276;28;20033;-65
2022/09/09 03:13:05;;;;;;;1.58;0.60;;;;;;;18.83;100.00;100354.00;4996922;28;20477;-63
2022/09/09 03:15:32;;;;;;;3.55;0.60;;;;;;;18.81;100.00;100355.22;5009586;28;20041;-65
2022/09/09 03:17:59;;;;;;;1.67;0.55;;;;;;;18.80;100.00;100351.75;5011118;28;20100;-63
2022/09/09 03:20:26;;;;;;;5.07;1.15;;;;;;;18.72;100.00;100353.78;4989779;28;20026;-64
2022/09/09 03:22:53;;;;;;;5.57;0.68;;;;;;;18.64;100.00;100351.31;5010714;28;20517;-63
2022/09/09 03:25:19;;;;;;;4.47;0.50;;;;;;;18.63;100.00;100352.31;5010871;28;20034;-64
2022/09/09 03:27:44;;;;;;;5.40;0.65;;;;;;;18.65;100.00;100358.22;4999151;28;20480;-64
2022/09/09 03:30:10;;;;;;;2.28;0.57;;;;;;;18.64;100.00;100362.69;4997916;28;20030;-65
2022/09/09 03:32:36;;;;;;;3.05;0.90;;;;;;;18.62;100.00;100364.72;5002502;28;20129;-65
2022/09/09 03:35:02;;;;;;;4.95;0.88;;;;;;;18.59;100.00;100362.44;5006807;28;20029;-65
2022/09/09 03:37:28;;;;;;;5.05;0.65;;;;;;;18.58;100.00;100358.16;5003144;28;20208;-63
2022/09/09 03:39:56;;;;;;;2.08;0.60;;;;;;;18.57;100.00;100362.63;5005260;28;20034;-64
2022/09/09 03:42:21;;;;;;;3.45;0.80;;;;;;;18.56;100.00;100360.19;5004402;28;20110;-65
2022/09/09 03:47:22;;;;;;;3.55;0.70;;;;;;;18.56;100.00;100357.56;5044537;22;20549;-63
2022/09/09 03:49:48;;;;;;;2.10;0.55;;;;;;;18.62;100.00;100359.44;5050006;28;20045;-63
2022/09/09 03:52:15;;;;;;;4.05;0.57;;;;;;;18.63;100.00;100361.06;5050085;28;20088;-64
2022/09/09 03:54:42;;;;;;;4.40;0.68;;;;;;;18.65;100.00;100359.03;5049808;28;20044;-64
2022/09/09 03:57:09;;;;;;;3.15;0.60;;;;;;;18.67;100.00;100362.28;5015056;28;20029;-62
2022/09/09 03:59:34;;;;;;;3.58;0.60;;;;;;;18.74;100.00;100362.31;5049863;28;20025;-64
2022/09/09 04:02:02;;;;;;;1.85;0.65;;;;;;;18.81;100.00;100356.03;5049773;28;20025;-65
2022/09/09 04:04:27;;;;;;;5.80;0.50;;;;;;;18.79;100.00;100362.53;5031480;28;20114;-64
2022/09/09 04:06:53;;;;;;;2.97;0.52;;;;;;;18.82;100.00;100354.19;5049267;28;20550;-64
2022/09/09 04:09:19;;;;;;;3.50;0.90;;;;;;;18.90;100.00;100360.06;5049377;28;20028;-65
2022/09/09 04:11:45;;;;;;;2.97;0.93;;;;;;;18.87;100.00;100352.59;5049213;28;20029;-64
2022/09/09 04:14:12;;;;;;;2.40;0.93;;;;;;;18.87;100.00;100355.22;5031598;28;20025;-64
2022/09/09 04:16:38;;;;;;;1.10;0.40;;;;;;;18.89;100.00;100353.19;5031294;28;20475;-64
2022/09/09 04:19:06;;;;;;;2.05;0.70;;;;;;;18.94;100.00;100349.94;5049261;28;20036;-64
2022/09/09 04:21:32;;;;;;;1.90;0.60;;;;;;;18.94;100.00;100346.47;5031266;28;20029;-65
2022/09/09 04:23:57;;;;;;;1.45;0.70;;;;;;;18.87;100.00;100354.41;5049102;28;20032;-65
2022/09/09 04:26:23;;;;;;;5.47;0.55;;;;;;;18.77;100.00;100349.53;5049213;28;20024;-62
2022/09/09 04:28:50;;;;;;;3.03;0.85;;;;;;;18.64;100.00;100352.13;5049353;28;20025;-64
2022/09/09 04:31:25;;;;;;;2.95;0.80;;;;;;;18.56;100.00;100349.63;5030810;28;20029;-63
2022/09/09 04:33:51;;;;;;;2.97;0.82;;;;;;;18.48;100.00;100341.91;5030963;28;20025;-63
2022/09/09 04:36:19;;;;;;;3.45;0.80;;;;;;;18.39;100.00;100340.47;5049475;28;20479;-64
2022/09/09 04:38:44;;;;;;;2.85;0.80;;;;;;;18.34;100.00;100350.81;5030402;28;20017;-65
2022/09/09 04:41:11;;;;;;;1.70;0.50;;;;;;;18.30;100.00;100350.38;5048751;28;20047;-63
2022/09/09 04:43:39;;;;;;;2.53;0.45;;;;;;;18.28;100.00;100348.97;5048836;28;20064;-63
2022/09/09 04:46:05;;;;;;;6.13;0.90;;;;;;;18.23;100.00;100345.09;5048848;28;20024;-63
2022/09/09 04:48:31;;;;;;;2.55;0.90;;;;;;;18.21;100.00;100347.09;5048682;28;20055;-64
2022/09/09 04:50:59;;;;;;;4.28;0.70;;;;;;;18.21;100.00;100339.19;5048554;28;20028;-65
2022/09/09 04:53:25;;;;;;;2.63;0.70;;;;;;;18.19;100.00;100335.13;5048569;28;20047;-62
2022/09/09 04:55:53;;;;;;;1.40;0.70;;;;;;;18.14;100.00;100341.00;5030661;28;20060;-64
2022/09/09 04:58:18;;;;;;;2.60;0.90;;;;;;;18.10;100.00;100334.47;5029814;28;20507;-65
2022/09/09 05:00:44;;;;;;;4.88;1.00;;;;;;;18.09;100.00;100340.75;5048293;28;20031;-64
2022/09/09 05:03:09;;;;;;;5.65;1.00;;;;;;;18.07;100.00;100345.41;5048371;28;20090;-65
2022/09/09 05:05:35;;;;;;;3.03;0.93;;;;;;;18.06;100.00;100342.97;5046190;28;20064;-65
2022/09/09 05:08:06;;;;;;;5.57;1.25;;;;;;;18.05;100.00;100347.44;5047902;28;20446;-64
2022/09/09 05:10:32;;;;;;;7.43;1.10;;;;;;;18.07;100.00;100350.69;5048566;28;20093;-65
2022/09/09 05:12:58;;;;;;;5.47;1.15;;;;;;;18.07;100.00;100345.41;5048110;28;20532;-65
2022/09/09 05:15:23;;;;;;;3.63;1.10;;;;;;;18.07;100.00;100339.31;5048398;28;20112;-63
2022/09/09 05:17:49;;;;;;;4.72;0.88;;;;;;;18.10;100.00;100342.38;5048137;28;20033;-65
2022/09/09 05:20:14;;;;;;;2.05;1.02;;;;;;;18.16;100.00;100331.06;5047103;28;20029;-66
2022/09/09 05:22:40;;;;;;;1.70;1.00;;;;;;;18.21;100.00;100335.75;5047974;28;20097;-64
2022/09/09 05:25:06;;;;;;;3.70;1.02;;;;;;;18.20;100.00;100337.56;5048039;28;20070;-62
2022/09/09 05:27:33;;;;;;;4.93;0.90;;;;;;;18.30;100.00;100329.28;5048405;28;20032;-63
2022/09/09 05:29:59;;;;;;;4.30;1.20;;;;;;;18.41;100.00;100331.34;5048137;28;20510;-63
2022/09/09 05:32:24;;;;;;;4.80;0.88;;;;;;;18.49;100.00;100340.88;5048299;28;20021;-63
2022/09/09 05:34:51;;;;;;;2.95;1.30;;;;;;;18.59;100.00;100338.69;5048526;28;20035;-66
2022/09/09 05:37:18;;;;;;;2.20;1.00;;;;;;;18.70;100.00;100329.41;5047612;28;20075;-63
2022/09/09 05:39:44;;;;;;;5.50;1.40;;;;;;;18.82;100.00;100328.63;5048191;28;20293;-67
2022/09/09 05:42:09;;;;;;;2.95;1.08;;;;;;;18.97;100.00;100335.50;5047748;28;20051;-66
2022/09/09 05:44:35;;;;;;;4.57;1.80;;;;;;;19.06;100.00;100340.41;5048424;28;20120;-67
2022/09/09 05:47:00;;;;;;;5.63;2.38;;;;;;;19.14;100.00;100342.03;5047697;28;20045;-64
2022/09/09 05:49:26;;;;;;;3.58;1.73;;;;;;;19.23;100.00;100351.38;5048145;28;20029;-66
2022/09/09 05:51:51;;;;;;;6.25;2.53;;;;;;;19.29;100.00;100358.50;5047691;28;20495;-65
2022/09/09 05:54:17;;;;;;;4.00;1.80;;;;;;;19.35;100.00;100359.50;5013318;28;20036;-64
2022/09/09 05:56:43;;;;;;;5.03;1.85;;;;;;;19.41;100.00;100348.91;5048070;28;20094;-64
2022/09/09 05:59:09;;;;;;;6.70;1.50;;;;;;;19.48;100.00;100344.44;5048057;28;20468;-64
2022/09/09 06:01:40;;;;;;;6.15;1.27;;;;;;;19.57;100.00;100345.06;5047907;28;20033;-66
2022/09/09 06:04:06;;;;;;;8.15;2.17;;;;;;;19.65;100.00;100339.56;5029456;28;20825;-64
2022/09/09 06:06:39;;;;;;;4.63;1.33;;;;;;;19.73;100.00;100349.13;5048253;28;20223;-65
2022/09/09 06:09:09;;;;;;;4.32;1.50;;;;;;;19.82;100.00;100335.47;5029842;28;20168;-67
2022/09/09 06:11:36;;;;;;;4.03;1.17;;;;;;;19.87;100.00;100335.63;5033700;28;20029;-65
2022/09/09 06:14:03;;;;;;;5.30;1.70;;;;;;;19.92;100.00;100347.41;5051591;28;20032;-66
2022/09/09 06:16:29;;;;;;;3.25;1.25;;;;;;;19.92;100.00;100342.94;5051719;28;20021;-64
2022/09/09 06:18:56;;;;;;;3.90;1.17;;;;;;;19.91;100.00;100345.78;5051262;28;20035;-65
2022/09/09 06:21:25;;;;;;;4.13;1.58;;;;;;;19.91;100.00;100357.19;5051859;28;20052;-62
2022/09/09 06:23:52;;;;;;;6.00;1.60;;;;;;;19.89;100.00;100365.31;5051301;28;20394;-63
2022/09/09 06:26:21;;;;;;;4.43;1.40;;;;;;;19.85;100.00;100384.44;5033271;28;20035;-62
2022/09/09 06:28:47;;;;;;;4.20;1.38;;;;;;;19.77;100.00;100371.47;5051529;28;20140;-62
2022/09/09 06:31:21;;;;;;;4.30;1.30;;;;;;;19.63;100.00;100369.88;5051557;28;20112;-63
2022/09/09 06:33:49;;;;;;;6.22;1.08;;;;;;;19.48;100.00;100355.00;5051224;28;20040;-62
2022/09/09 06:36:26;;;;;;;3.45;0.90;;;;;;;19.41;100.00;100342.81;5051258;28;20029;-64
2022/09/09 06:38:52;;;;;;;2.95;1.20;;;;;;;19.36;100.00;100346.09;5051304;28;20035;-63
2022/09/09 06:41:19;;;;;;;6.15;1.45;;;;;;;19.29;100.00;100345.28;5051040;28;20037;-64
2022/09/09 06:43:46;;;;;;;10.00;1.42;;;;;;;19.33;100.00;100346.50;5051306;28;20108;-64
2022/09/09 06:46:14;;;;;;;4.93;1.50;;;;;;;19.43;100.00;100346.06;5051451;28;20029;-64
2022/09/09 06:48:41;;;;;;;4.05;1.20;;;;;;;19.54;100.00;100348.13;5050733;28;20056;-64
2022/09/09 06:51:13;;;;;;;6.03;2.38;;;;;;;19.66;100.00;100337.75;5050893;28;20142;-63
2022/09/09 06:53:41;;;;;;;3.45;1.40;;;;;;;19.76;100.00;100330.19;5051009;28;20733;-65
2022/09/09 06:56:09;;;;;;;2.47;1.40;;;;;;;19.80;100.00;100334.88;5050919;28;20090;-67
2022/09/09 06:58:36;;;;;;;4.30;1.67;;;;;;;19.78;100.00;100334.25;5050709;28;20037;-64
2022/09/09 07:01:06;;;;;;;3.55;1.67;;;;;;;19.72;100.00;100345.66;5051009;28;20147;-66
2022/09/09 07:03:32;;;;;;;1.90;1.17;;;;;;;19.63;100.00;100348.72;5050858;28;20082;-65
2022/09/09 07:05:59;;;;;;;4.75;1.40;;;;;;;19.55;100.00;100340.00;5032739;28;20036;-64
2022/09/09 07:08:24;;;;;;;3.45;1.60;;;;;;;19.52;100.00;100340.41;5032509;28;20029;-64
2022/09/09 07:10:53;;;;;;;2.25;1.20;;;;;;;19.50;100.00;100329.19;5050434;28;20361;-65
2022/09/09 07:13:25;;;;;;;2.05;1.00;;;;;;;19.56;100.00;100346.09;5031913;28;20021;-64
2022/09/09 07:15:51;;;;;;;2.50;1.05;;;;;;;19.63;100.00;100351.38;5032536;28;20190;-64
2022/09/09 07:18:16;;;;;;;2.13;1.73;;;;;;;19.65;100.00;100351.97;5050974;28;20475;-63
2022/09/09 07:20:42;;;;;;;4.53;1.88;;;;;;;19.67;100.00;100357.88;5050274;28;20104;-64
2022/09/09 07:23:08;;;;;;;1.85;0.80;;;;;;;19.67;100.00;100352.59;5050064;28;20055;-63
2022/09/09 07:25:33;;;;;;;2.58;1.38;;;;;;;19.66;100.00;100359.69;5050100;28;20107;-64
2022/09/09 07:27:58;;;;;;;3.03;1.13;;;;;;;19.67;100.00;100379.00;5050153;28;20029;-64
2022/09/09 07:30:24;;;;;;;1.65;1.10;;;;;;;19.62;100.00;100382.25;5050647;28;20032;-64
2022/09/09 07:32:51;;;;;;;2.00;1.23;;;;;;;19.62;100.00;100394.66;5050078;28;20438;-64
2022/09/09 07:35:17;;;;;;;4.38;1.52;;;;;;;19.59;100.00;100389.78;5050255;28;20029;-63
2022/09/09 07:37:43;;;;;;;2.75;1.33;;;;;;;19.58;100.00;100364.38;5050150;28;20468;-63
2022/09/09 07:40:10;;;;;;;1.50;1.30;;;;;;;19.57;100.00;100381.25;5049877;28;20332;-62
2022/09/09 07:42:37;;;;;;;1.40;1.30;;;;;;;19.57;100.00;100390.00;5031727;28;20032;-62
2022/09/09 07:45:03;;;;;;;4.68;1.90;;;;;;;19.54;100.00;100380.66;5050054;28;20021;-63
2022/09/09 07:47:29;;;;;;;1.98;1.60;;;;;;;19.52;100.00;100387.16;5049786;28;20106;-62
2022/09/09 07:49:55;;;;;;;3.35;1.30;;;;;;;19.55;100.00;100413.16;5050230;28;20413;-62
2022/09/09 07:52:21;;;;;;;2.35;1.77;;;;;;;19.59;100.00;100414.38;5031798;28;20032;-63
2022/09/09 07:54:47;;;;;;;1.85;1.25;;;;;;;19.62;100.00;100407.88;5049776;28;20028;-62
2022/09/09 07:57:12;;;;;;;5.03;2.00;;;;;;;19.60;100.00;100408.09;5049561;28;20025;-62
2022/09/09 07:59:38;;;;;;;3.70;1.73;;;;;;;19.62;100.00;100397.31;5049597;28;20102;-63
2022/09/09 08:02:04;;;;;;;3.88;1.80;;;;;;;19.67;100.00;100400.97;5049580;28;20024;-63
2022/09/09 08:04:29;;;;;;;6.32;2.05;;;;;;;19.68;100.00;100407.06;5047241;28;20036;-63
2022/09/09 08:06:57;;;;;;;5.68;2.10;;;;;;;19.68;100.00;100405.22;5033254;28;20382;-63
2022/09/09 08:09:26;;;;;;;5.43;1.50;;;;;;;19.66;100.00;100394.06;5029330;28;20071;-64
2022/09/09 08:11:52;;;;;;;2.92;0.88;;;;;;;19.66;100.00;100390.59;5028188;28;20026;-63
2022/09/09 08:14:18;;;;;;;3.17;1.17;;;;;;;19.64;100.00;100382.06;5032955;28;20040;-63
2022/09/09 08:16:47;;;;;;;2.05;1.00;;;;;;;19.58;100.00;100364.38;5046558;28;20033;-62
2022/09/09 08:19:14;;;;;;;5.03;1.52;;;;;;;19.63;100.00;100375.16;5047798;28;20255;-63
2022/09/09 08:21:42;;;;;;;2.92;1.38;;;;;;;19.71;100.00;100367.00;5026674;28;20400;-63
2022/09/09 08:24:10;;;;;;;3.55;1.20;;;;;;;19.77;100.00;100353.78;5029020;28;20488;-63
2022/09/09 08:26:43;;;;;;;3.03;1.20;;;;;;;19.80;100.00;100366.59;5028043;28;20053;-63
2022/09/09 08:29:11;;;;;;;4.38;1.30;;;;;;;19.86;100.00;100373.66;5029249;28;20061;-63
2022/09/09 08:31:45;;;;;;;5.70;1.48;;;;;;;19.87;100.00;100359.44;5029347;28;20029;-63
2022/09/09 08:34:11;;;;;;;4.68;2.25;;;;;;;19.85;100.00;100350.88;5028925;28;20029;-63
2022/09/09 08:36:40;;;;;;;2.72;1.42;;;;;;;19.80;100.00;100358.66;5029282;28;20025;-63
2022/09/09 08:39:08;;;;;;;4.30;1.58;;;;;;;19.77;100.00;100371.47;5011037;28;20045;-63
2022/09/09 08:41:45;;;;;;;3.10;1.58;;;;;;;19.74;100.00;100380.63;5029109;28;20366;-63
2022/09/09 08:44:34;;;;;;;7.22;1.50;;;;;;;19.66;100.00;100372.09;5029683;28;20033;-63
2022/09/09 08:47:36;;;;;;;2.70;1.20;;;;;;;19.58;100.00;100361.75;5017982;28;20041;-62
2022/09/09 08:50:38;;;;;;;5.93;1.35;;;;;;;19.50;100.00;100358.25;5028837;28;20038;-63
2022/09/09 08:53:11;;;;;;;3.13;1.42;;;;;;;19.45;100.00;100360.69;5011033;28;20029;-63
2022/09/09 08:55:55;;;;;;;10.07;3.33;;;;;;;19.41;100.00;100374.53;5028915;28;20088;-63
2022/09/09 08:58:30;;;;;;;5.90;2.42;;;;;;;19.30;100.00;100359.31;5027491;28;20063;-63
2022/09/09 09:01:08;;;;;;;;;;;;;;;19.15;100.00;100354.22;5027735;28;20040;-62
2022/09/09 09:03:50;;;;;;;10.10;2.55;;;;;;;19.16;100.00;100350.56;5039161;28;20510;-62
2022/09/09 09:06:36;;;;;;;6.47;2.40;;;;;;;19.16;100.00;100358.50;5012577;28;20223;-63
2022/09/09 09:09:24;;;;;;;4.50;2.15;;;;;;;19.20;100.00;100349.97;5027576;28;20036;-62
2022/09/09 09:11:53;;;;;;;4.13;2.00;;;;;;;19.29;100.00;100355.03;5030606;28;20542;-62
2022/09/09 09:14:24;;;;;;;6.15;1.90;;;;;;;19.30;100.00;100352.19;5024331;28;20124;-63
2022/09/09 09:17:12;;;;;;;4.95;2.08;;;;;;;19.33;100.00;100372.91;5039616;28;20450;-63
2022/09/09 09:19:40;;;;;;;4.05;2.10;;;;;;;19.35;100.00;100378.81;5023705;28;20036;-62
2022/09/09 09:22:28;;;;;;;3.35;1.67;;;;;;;19.31;100.00;100390.00;5039656;28;20044;-65
2022/09/09 09:25:04;;;;;;;5.97;1.80;;;;;;;19.27;100.00;100399.34;5026966;28;20032;-63
2022/09/09 09:28:01;;;;;;;5.60;1.40;;;;;;;19.21;100.00;100400.94;5028002;28;20123;-62
2022/09/09 09:30:30;;;;;;;;;;;;;;;19.02;100.00;100407.00;5026344;28;20032;-63
2022/09/09 09:33:02;;;;;;;3.83;0.90;;;;;;;18.97;100.00;100412.88;5040891;28;20366;-63
2022/09/09 09:35:27;;;;;;;3.80;1.10;;;;;;;18.88;100.00;100404.38;5032510;28;20460;-63
2022/09/09 09:37:53;;;;;;;3.35;0.68;;;;;;;18.84;100.00;100399.69;5034804;28;20029;-65
2022/09/09 09:40:21;;;;;;;1.48;0.88;;;;;;;18.81;100.00;100387.72;5044327;28;20550;-65
2022/09/09 09:42:56;;;;;;;2.15;0.80;;;;;;;18.82;100.00;100391.97;5043182;28;20037;-64
2022/09/09 09:45:29;;;;;;;5.68;1.45;;;;;;;18.86;100.00;100392.38;5039206;28;20399;-65
2022/09/09 09:48:03;;;;;;;2.88;0.98;;;;;;;18.89;100.00;100392.81;5031099;28;20283;-64
2022/09/09 09:50:29;;;;;;;2.40;0.85;;;;;;;18.96;100.00;100407.81;5040912;28;20118;-64
2022/09/09 09:53:02;;;;;;;3.30;1.25;;;;;;;19.05;100.00;100420.63;5043486;28;20021;-64
2022/09/09 09:55:30;;;;;;;3.00;1.05;;;;;;;19.06;100.00;100424.09;5043809;28;20445;-64
2022/09/09 09:58:14;;;;;;;3.60;1.15;;;;;;;19.12;100.00;100431.22;5042804;28;20039;-64
2022/09/09 10:00:49;;;;;;;2.83;0.70;;;;;;;19.16;100.00;100425.31;5039999;28;20044;-64
2022/09/09 10:03:26;;;;;;;1.80;0.80;;;;;;;19.21;100.00;100438.75;5039696;28;20435;-64
2022/09/09 10:05:52;;;;;;;2.17;1.00;;;;;;;19.20;100.00;100445.03;5037928;28;20158;-64
2022/09/09 10:08:18;;;;;;;2.67;0.70;;;;;;;19.17;100.00;100457.81;5041876;28;20028;-63
2022/09/09 10:11:15;;;;;;;2.88;0.75;;;;;;;19.10;100.00;100478.13;5034251;28;20124;-63
2022/09/09 10:14:14;;;;;;;5.65;1.33;;;;;;;18.98;100.00;100479.72;4987695;28;20492;-62
2022/09/09 10:17:01;;;;;;;4.40;0.98;;;;;;;18.88;100.00;100461.63;5044099;28;20044;-64
2022/09/09 10:19:37;;;;;;;4.95;1.52;;;;;;;18.87;100.00;100450.25;5039210;28;20045;-63
2022/09/09 10:22:11;;;;;;;5.22;1.08;;;;;;;18.86;100.00;100429.34;5042919;28;20078;-62
2022/09/09 10:25:18;;;;;;;1.55;0.85;;;;;;;18.86;100.00;100411.69;5047235;28;20044;-63
2022/09/09 10:28:11;;;;;;;3.70;0.98;;;;;;;18.86;100.00;100414.31;5031218;28;20646;-62
2022/09/09 10:31:03;;;;;;;1.88;0.80;;;;;;;18.87;100.00;100415.94;5027361;28;20053;-62
2022/09/09 10:33:47;;;;;;;2.10;0.88;;;;;;;18.97;100.00;100407.63;5027530;28;20164;-62
2022/09/09 10:36:19;;;;;;;3.38;0.63;;;;;;;19.09;100.00;100392.00;5027634;28;20440;-62
2022/09/09 10:38:58;;;;;;;2.35;0.40;;;;;;;19.08;100.00;100406.22;5035994;28;20130;-62
2022/09/09 10:42:05;;;;;;;3.67;0.95;;;;;;;19.18;100.00;100409.28;5042910;28;20033;-62
2022/09/09 10:44:34;;;;;;;1.92;0.40;;;;;;;19.32;100.00;100396.91;5037510;28;20228;-62
2022/09/09 10:47:30;;;;;;;2.15;0.50;;;;;;;19.45;100.00;100389.75;5038755;28;20062;-63
2022/09/09 10:50:21;;;;;;;;;;;;;;;19.55;100.00;100389.38;5041794;28;20564;-62
2022/09/09 10:53:09;;;;;;;1.48;0.30;;;;;;;19.63;100.00;100381.25;5033268;28;19920;-61
2022/09/09 10:55:42;;;;;;;1.95;0.40;;;;;;;19.64;100.00;100379.41;5040713;28;20025;-61
2022/09/09 10:58:19;;;;;;;1.83;0.50;;;;;;;19.73;100.00;100375.53;5044709;28;20028;-62
2022/09/09 11:01:02;;;;;;;0.98;0.30;;;;;;;19.79;100.00;100380.00;5045569;28;20108;-62
2022/09/09 11:03:29;;;;;;;0.70;0.20;;;;;;;19.90;100.00;100371.41;5042783;28;20514;-63
2022/09/09 11:06:09;;;;;;;1.95;0.50;;;;;;;20.04;100.00;100365.09;5048378;28;20037;-63
2022/09/09 11:08:38;;;;;;;1.13;0.47;;;;;;;20.29;100.00;100365.19;5046464;28;20040;-62
2022/09/09 11:11:16;;;;;;;1.10;0.40;;;;;;;20.44;100.00;100364.94;5041062;28;20037;-63
2022/09/09 11:13:59;;;;;;;2.65;0.32;;;;;;;20.55;100.00;100366.91;5048724;28;20415;-63
2022/09/09 11:16:30;;;;;;;1.63;0.40;;;;;;;20.67;100.00;100359.94;5049092;28;20079;-62
2022/09/09 11:19:02;;;;;;;2.25;0.50;;;;;;;20.75;100.00;100358.88;5047834;28;20071;-62
2022/09/09 11:21:36;;;;;;;3.47;0.50;;;;;;;20.88;100.00;100356.94;5046885;28;20086;-62
2022/09/09 11:24:37;;;;;;;3.35;0.38;;;;;;;20.97;100.00;100356.69;5046041;28;20063;-62
2022/09/09 11:27:06;;;;;;;1.15;0.50;;;;;;;20.94;100.00;100359.75;5038026;28;20103;-63
2022/09/09 11:30:08;;;;;;;1.38;0.35;;;;;;;20.90;100.00;100353.25;5049549;28;20359;-61
2022/09/09 11:32:49;;;;;;;2.03;0.50;;;;;;;20.85;100.00;100357.34;5044114;28;20392;-60
2022/09/09 11:35:46;;;;;;;1.52;0.40;;;;;;;20.80;100.00;100351.06;5059186;28;20101;-62
2022/09/09 11:38:25;;;;;;;5.50;0.60;;;;;;;20.80;100.00;100353.72;5045777;28;20040;-62
2022/09/09 11:40:59;;;;;;;2.78;0.40;;;;;;;20.79;100.00;100342.34;5050081;28;20033;-61
2022/09/09 11:43:46;;;;;;;1.48;0.40;;;;;;;20.80;100.00;100341.28;5056605;28;21693;-61